createdAt,value
2022-08-27T00:02:10.396Z,21.03
2022-08-27T00:04:39.086Z,21.04
2022-08-27T00:07:08.642Z,21.04
2022-08-27T00:09:37.209Z,20.99
2022-08-27T00:12:06.807Z,20.92
2022-08-27T00:14:36.734Z,20.89
2022-08-27T00:17:06.212Z,20.85
2022-08-27T00:19:36.042Z,20.82
2022-08-27T00:22:06.146Z,20.82
2022-08-27T00:24:34.797Z,20.77
2022-08-27T00:27:06.582Z,20.63
2022-08-27T00:29:35.182Z,20.53
2022-08-27T00:32:03.714Z,20.47
2022-08-27T00:34:31.866Z,20.41
2022-08-27T00:37:00.077Z,20.33
2022-08-27T00:39:28.240Z,20.17
2022-08-27T00:41:56.427Z,20.00
2022-08-27T00:44:24.506Z,19.90
2022-08-27T00:47:01.430Z,19.83
2022-08-27T00:49:38.586Z,19.82
2022-08-27T00:52:13.813Z,19.80
2022-08-27T00:54:42.619Z,19.81
2022-08-27T00:57:11.056Z,19.81
2022-08-27T00:59:42.275Z,19.82
2022-08-27T01:02:19.455Z,19.82
2022-08-27T01:04:52.748Z,19.83
2022-08-27T01:07:22.414Z,19.79
2022-08-27T01:09:52.771Z,19.74
2022-08-27T01:12:21.509Z,19.72
2022-08-27T01:14:50.208Z,19.74
2022-08-27T01:17:18.637Z,19.76
2022-08-27T01:19:53.191Z,19.80
2022-08-27T01:22:42.393Z,19.82
2022-08-27T01:25:13.768Z,19.83
2022-08-27T01:27:43.938Z,19.84
2022-08-27T01:30:17.185Z,19.86
2022-08-27T01:32:46.799Z,19.78
2022-08-27T01:35:16.393Z,19.87
2022-08-27T01:37:47.677Z,19.87
2022-08-27T01:40:19.040Z,19.88
2022-08-27T01:42:53.189Z,19.89
2022-08-27T01:45:28.132Z,19.88
2022-08-27T01:47:57.151Z,19.87
2022-08-27T01:50:32.148Z,19.83
2022-08-27T01:53:11.605Z,19.80
2022-08-27T01:55:42.079Z,19.79
2022-08-27T01:58:17.605Z,19.75
2022-08-27T02:00:52.041Z,19.74
2022-08-27T02:03:25.251Z,19.67
2022-08-27T02:05:53.864Z,19.59
2022-08-27T02:08:22.113Z,19.52
2022-08-27T02:10:51.150Z,19.46
2022-08-27T02:13:19.289Z,19.38
2022-08-27T02:15:47.539Z,19.26
2022-08-27T02:18:16.184Z,19.20
2022-08-27T02:20:46.842Z,19.21
2022-08-27T02:23:16.426Z,19.22
2022-08-27T02:25:47.361Z,19.21
2022-08-27T02:28:16.557Z,19.19
2022-08-27T02:30:44.889Z,19.17
2022-08-27T02:33:13.707Z,19.15
2022-08-27T02:35:44.092Z,19.10
2022-08-27T02:38:14.152Z,19.06
2022-08-27T02:40:42.550Z,19.04
2022-08-27T02:43:15.675Z,19.05
2022-08-27T02:45:44.465Z,19.09
2022-08-27T02:48:12.848Z,19.13
2022-08-27T02:50:41.378Z,19.14
2022-08-27T02:53:10.394Z,19.15
2022-08-27T02:55:38.875Z,19.16
2022-08-27T02:58:09.919Z,19.16
2022-08-27T03:00:38.609Z,19.15
2022-08-27T03:03:06.926Z,19.11
2022-08-27T03:05:35.135Z,19.12
2022-08-27T03:08:05.164Z,19.10
2022-08-27T03:10:33.840Z,19.08
2022-08-27T03:13:02.110Z,19.06
2022-08-27T03:15:30.286Z,19.03
2022-08-27T03:18:17.118Z,19.00
2022-08-27T03:20:52.044Z,18.97
2022-08-27T03:23:22.809Z,18.94
2022-08-27T03:25:54.077Z,18.92
2022-08-27T03:28:28.082Z,18.90
2022-08-27T03:31:01.379Z,18.89
2022-08-27T03:33:32.026Z,18.87
2022-08-27T03:36:00.695Z,18.85
2022-08-27T03:38:29.063Z,18.86
2022-08-27T03:40:57.449Z,18.86
2022-08-27T03:43:25.850Z,18.86
2022-08-27T03:46:02.143Z,18.87
2022-08-27T03:48:32.340Z,18.86
2022-08-27T03:51:08.627Z,18.86
2022-08-27T03:53:39.722Z,18.87
2022-08-27T03:56:08.370Z,18.88
2022-08-27T03:58:37.909Z,18.90
2022-08-27T04:01:08.354Z,18.90
2022-08-27T04:03:37.162Z,18.91
2022-08-27T04:06:05.971Z,18.90
2022-08-27T04:08:34.250Z,18.89
2022-08-27T04:11:07.037Z,18.85
2022-08-27T04:13:35.332Z,18.82
2022-08-27T04:16:06.133Z,18.78
2022-08-27T04:18:34.397Z,18.77
2022-08-27T04:21:11.574Z,18.76
2022-08-27T04:23:41.048Z,18.77
2022-08-27T04:26:11.364Z,18.79
2022-08-27T04:28:39.670Z,18.81
2022-08-27T04:31:16.663Z,18.85
2022-08-27T04:33:50.742Z,18.89
2022-08-27T04:36:20.632Z,18.94
2022-08-27T04:38:49.723Z,18.96
2022-08-27T04:41:21.834Z,18.95
2022-08-27T04:43:56.455Z,18.95
2022-08-27T04:46:30.589Z,18.98
2022-08-27T04:49:01.037Z,19.02
2022-08-27T04:51:29.850Z,19.04
2022-08-27T04:54:00.896Z,19.08
2022-08-27T04:56:30.030Z,19.12
2022-08-27T04:58:58.366Z,19.16
2022-08-27T05:01:28.925Z,19.22
2022-08-27T05:03:58.780Z,19.26
2022-08-27T05:06:27.648Z,19.30
2022-08-27T05:08:57.165Z,19.36
2022-08-27T05:11:32.428Z,19.41
2022-08-27T05:14:09.698Z,19.45
2022-08-27T05:16:38.355Z,19.50
2022-08-27T05:19:09.213Z,19.56
2022-08-27T05:21:40.281Z,19.63
2022-08-27T05:24:08.486Z,19.71
2022-08-27T05:26:37.675Z,19.80
2022-08-27T05:29:06.601Z,19.89
2022-08-27T05:31:35.401Z,19.98
2022-08-27T05:34:03.789Z,20.09
2022-08-27T05:36:47.900Z,20.18
2022-08-27T05:39:17.753Z,20.25
2022-08-27T05:41:45.984Z,20.31
2022-08-27T05:44:40.064Z,20.36
2022-08-27T05:47:04.297Z,20.39
2022-08-27T05:49:32.442Z,20.39
2022-08-27T05:52:00.659Z,20.38
2022-08-27T05:54:28.859Z,20.38
2022-08-27T05:56:56.984Z,20.42
2022-08-27T05:59:43.928Z,20.47
2022-08-27T06:02:12.130Z,20.55
2022-08-27T06:04:40.364Z,20.63
2022-08-27T06:07:10.763Z,20.69
2022-08-27T06:09:40.099Z,20.77
2022-08-27T06:12:09.278Z,20.85
2022-08-27T06:14:38.569Z,20.90
2022-08-27T06:17:06.732Z,20.98
2022-08-27T06:19:36.620Z,21.07
2022-08-27T06:22:10.058Z,21.10
2022-08-27T06:24:41.582Z,21.14
2022-08-27T06:27:13.180Z,21.25
2022-08-27T06:29:42.327Z,21.37
2022-08-27T06:32:12.142Z,21.48
2022-08-27T06:34:40.590Z,21.60
2022-08-27T06:37:09.129Z,21.69
2022-08-27T06:39:39.798Z,21.77
2022-08-27T06:42:13.385Z,21.92
2022-08-27T06:44:42.211Z,22.02
2022-08-27T06:47:11.148Z,22.08
2022-08-27T06:49:41.307Z,22.17
2022-08-27T06:52:11.722Z,22.26
2022-08-27T06:54:40.390Z,22.33
2022-08-27T06:57:09.064Z,22.44
2022-08-27T06:59:38.785Z,22.57
2022-08-27T07:02:08.340Z,22.63
2022-08-27T07:04:36.649Z,22.68
2022-08-27T07:07:04.777Z,22.71
2022-08-27T07:09:34.304Z,22.78
2022-08-27T07:12:03.000Z,22.88
2022-08-27T07:14:37.073Z,22.97
2022-08-27T07:17:11.028Z,23.05
2022-08-27T07:19:45.605Z,23.16
2022-08-27T07:22:13.889Z,23.23
2022-08-27T07:24:42.245Z,23.33
2022-08-27T07:27:11.325Z,23.46
2022-08-27T07:29:40.068Z,23.60
2022-08-27T07:32:08.218Z,23.68
2022-08-27T07:34:36.717Z,23.79
2022-08-27T07:37:05.281Z,23.87
2022-08-27T07:39:33.471Z,23.96
2022-08-27T07:42:20.513Z,24.09
2022-08-27T07:44:48.662Z,24.23
2022-08-27T07:47:17.201Z,24.26
2022-08-27T07:49:45.371Z,24.35
2022-08-27T07:52:13.505Z,24.46
2022-08-27T07:54:42.682Z,24.66
2022-08-27T07:57:11.989Z,24.85
2022-08-27T07:59:40.065Z,24.98
2022-08-27T08:02:08.278Z,25.03
2022-08-27T08:04:42.115Z,25.04
2022-08-27T08:07:16.935Z,25.07
2022-08-27T08:09:45.114Z,25.10
2022-08-27T08:12:13.255Z,25.19
2022-08-27T08:14:41.662Z,25.28
2022-08-27T08:17:10.542Z,25.37
2022-08-27T08:19:38.964Z,25.45
2022-08-27T08:22:08.042Z,25.53
2022-08-27T08:24:36.626Z,25.64
2022-08-27T08:27:07.502Z,25.73
2022-08-27T08:29:36.246Z,25.84
2022-08-27T08:32:07.838Z,25.90
2022-08-27T08:34:36.161Z,25.95
2022-08-27T08:37:06.081Z,26.00
2022-08-27T08:39:36.255Z,26.03
2022-08-27T08:42:07.441Z,26.10
2022-08-27T08:44:43.334Z,26.19
2022-08-27T08:47:23.629Z,26.28
2022-08-27T08:50:23.028Z,26.35
2022-08-27T08:52:59.664Z,26.46
2022-08-27T08:55:41.379Z,26.52
2022-08-27T08:58:17.073Z,26.59
2022-08-27T09:00:49.026Z,26.67
2022-08-27T09:03:17.301Z,26.75
2022-08-27T09:06:06.832Z,26.78
2022-08-27T09:08:42.240Z,26.78
2022-08-27T09:11:24.250Z,26.81
2022-08-27T09:14:09.274Z,26.88
2022-08-27T09:16:39.721Z,26.88
2022-08-27T09:19:07.837Z,26.93
2022-08-27T09:21:45.102Z,27.04
2022-08-27T09:24:19.998Z,27.11
2022-08-27T09:26:48.237Z,27.15
2022-08-27T09:29:20.565Z,27.13
2022-08-27T09:32:07.835Z,27.11
2022-08-27T09:34:41.812Z,27.15
2022-08-27T09:37:34.732Z,27.12
2022-08-27T09:40:29.492Z,27.11
2022-08-27T09:43:06.407Z,27.15
2022-08-27T09:45:35.444Z,27.22
2022-08-27T09:48:14.200Z,27.33
2022-08-27T09:50:48.169Z,27.54
2022-08-27T09:53:25.625Z,27.70
2022-08-27T09:55:59.125Z,27.86
2022-08-27T09:58:34.063Z,28.06
2022-08-27T10:01:07.194Z,28.61
2022-08-27T10:03:35.444Z,29.40
2022-08-27T10:06:03.704Z,30.07
2022-08-27T10:08:38.650Z,30.72
2022-08-27T10:11:29.354Z,31.32
2022-08-27T10:14:21.571Z,31.65
2022-08-27T10:17:25.302Z,31.78
2022-08-27T10:20:02.927Z,32.09
2022-08-27T10:22:52.527Z,32.21
2022-08-27T10:25:39.678Z,32.24
2022-08-27T10:28:23.005Z,32.19
2022-08-27T10:31:07.175Z,32.32
2022-08-27T10:33:55.587Z,32.51
2022-08-27T10:36:49.597Z,32.55
2022-08-27T10:39:45.737Z,32.59
2022-08-27T10:42:17.165Z,32.77
2022-08-27T10:45:16.184Z,32.90
2022-08-27T10:48:14.474Z,32.83
2022-08-27T10:50:59.096Z,32.56
2022-08-27T10:53:35.993Z,32.23
2022-08-27T10:56:10.976Z,32.27
2022-08-27T10:59:00.930Z,32.59
2022-08-27T11:02:02.813Z,32.86
2022-08-27T11:04:35.714Z,33.18
2022-08-27T11:07:09.949Z,33.44
2022-08-27T11:09:59.013Z,33.52
2022-08-27T11:12:37.156Z,33.42
2022-08-27T11:15:19.980Z,33.42
2022-08-27T11:18:08.345Z,33.68
2022-08-27T11:20:45.307Z,33.84
2022-08-27T11:23:19.912Z,33.65
2022-08-27T11:25:55.848Z,33.69
2022-08-27T11:29:00.594Z,34.06
2022-08-27T11:31:49.366Z,34.17
2022-08-27T11:34:52.096Z,34.49
2022-08-27T11:37:27.003Z,34.71
2022-08-27T11:40:01.140Z,34.58
2022-08-27T11:42:50.228Z,34.73
2022-08-27T11:45:28.734Z,34.95
2022-08-27T11:47:59.565Z,35.14
2022-08-27T11:50:31.341Z,35.10
2022-08-27T11:53:02.926Z,35.26
2022-08-27T11:55:38.711Z,35.54
2022-08-27T11:58:11.560Z,35.77
2022-08-27T12:00:42.433Z,35.89
2022-08-27T12:03:19.377Z,35.87
2022-08-27T12:05:48.900Z,35.86
2022-08-27T12:08:16.972Z,36.08
2022-08-27T12:11:16.286Z,36.49
2022-08-27T12:14:13.304Z,36.56
2022-08-27T12:17:05.464Z,36.55
2022-08-27T12:20:08.021Z,36.79
2022-08-27T12:23:23.527Z,37.16
2022-08-27T12:25:57.672Z,37.20
2022-08-27T12:28:27.330Z,36.48
2022-08-27T12:30:56.657Z,35.77
2022-08-27T12:33:35.403Z,35.21
2022-08-27T12:36:14.197Z,34.74
2022-08-27T12:38:50.985Z,34.29
2022-08-27T12:41:46.605Z,34.10
2022-08-27T12:44:35.003Z,34.17
2022-08-27T12:47:11.956Z,33.95
2022-08-27T12:49:58.942Z,33.58
2022-08-27T12:52:27.787Z,33.25
2022-08-27T12:55:04.875Z,32.94
2022-08-27T12:57:54.405Z,32.69
2022-08-27T13:00:26.311Z,32.45
2022-08-27T13:03:01.588Z,32.44
2022-08-27T13:05:44.601Z,32.47
2022-08-27T13:08:28.645Z,32.82
2022-08-27T13:11:07.161Z,33.24
2022-08-27T13:13:37.236Z,33.51
2022-08-27T13:16:05.960Z,33.38
2022-08-27T13:18:36.201Z,33.33
2022-08-27T13:21:12.756Z,33.73
2022-08-27T13:23:55.035Z,33.97
2022-08-27T13:26:25.779Z,34.13
2022-08-27T13:28:54.458Z,34.33
2022-08-27T13:31:25.600Z,34.59
2022-08-27T13:33:58.716Z,34.80
2022-08-27T13:36:32.827Z,35.00
2022-08-27T13:39:04.263Z,35.20
2022-08-27T13:41:38.689Z,35.02
2022-08-27T13:44:11.026Z,35.03
2022-08-27T13:46:48.797Z,35.04
2022-08-27T13:49:26.437Z,35.24
2022-08-27T13:52:31.353Z,35.48
2022-08-27T13:55:09.548Z,35.42
2022-08-27T13:57:47.651Z,35.07
2022-08-27T14:00:23.408Z,35.07
2022-08-27T14:02:56.205Z,35.19
2022-08-27T14:05:24.736Z,35.09
2022-08-27T14:08:10.486Z,34.86
2022-08-27T14:10:41.992Z,34.62
2022-08-27T14:13:22.678Z,34.61
2022-08-27T14:15:56.198Z,34.64
2022-08-27T14:18:55.073Z,34.65
2022-08-27T14:21:20.191Z,34.66
2022-08-27T14:23:48.868Z,34.71
2022-08-27T14:26:17.571Z,34.65
2022-08-27T14:28:46.374Z,34.68
2022-08-27T14:31:15.670Z,34.66
2022-08-27T14:33:44.997Z,34.43
2022-08-27T14:36:14.800Z,34.25
2022-08-27T14:38:48.132Z,34.15
2022-08-27T14:41:18.838Z,34.23
2022-08-27T14:43:49.965Z,34.25
2022-08-27T14:46:26.868Z,34.25
2022-08-27T14:48:58.536Z,34.27
2022-08-27T14:51:32.347Z,34.29
2022-08-27T14:54:00.467Z,34.23
2022-08-27T14:56:28.590Z,34.13
2022-08-27T14:58:56.967Z,33.93
2022-08-27T15:01:26.543Z,33.81
2022-08-27T15:03:56.323Z,33.58
2022-08-27T15:06:25.487Z,33.23
2022-08-27T15:08:54.905Z,32.84
2022-08-27T15:11:27.685Z,32.55
2022-08-27T15:13:56.542Z,32.45
2022-08-27T15:16:34.535Z,32.47
2022-08-27T15:19:03.418Z,32.47
2022-08-27T15:21:31.568Z,32.24
2022-08-27T15:24:15.869Z,31.92
2022-08-27T15:26:44.043Z,31.60
2022-08-27T15:29:12.931Z,31.31
2022-08-27T15:31:41.869Z,31.01
2022-08-27T15:34:11.284Z,30.63
2022-08-27T15:36:39.881Z,30.46
2022-08-27T15:39:08.551Z,30.26
2022-08-27T15:41:50.813Z,30.04
2022-08-27T15:44:26.584Z,29.82
2022-08-27T15:46:54.697Z,29.67
2022-08-27T15:49:22.810Z,29.60
2022-08-27T15:51:52.022Z,29.53
2022-08-27T15:54:20.169Z,29.44
2022-08-27T15:56:48.269Z,29.34
2022-08-27T15:59:16.985Z,29.24
2022-08-27T16:01:45.330Z,29.12
2022-08-27T16:04:15.102Z,29.03
2022-08-27T16:06:43.442Z,28.93
2022-08-27T16:09:11.706Z,28.79
2022-08-27T16:11:40.395Z,28.62
2022-08-27T16:14:10.833Z,28.46
2022-08-27T16:16:40.397Z,28.30
2022-08-27T16:19:08.766Z,28.19
2022-08-27T16:21:37.705Z,28.03
2022-08-27T16:24:10.873Z,27.85
2022-08-27T16:26:39.718Z,27.64
2022-08-27T16:29:08.664Z,27.45
2022-08-27T16:31:38.185Z,27.31
2022-08-27T16:34:17.011Z,27.24
2022-08-27T16:36:45.865Z,27.16
2022-08-27T16:39:14.055Z,27.10
2022-08-27T16:41:42.370Z,27.07
2022-08-27T16:44:10.938Z,27.04
2022-08-27T16:46:39.740Z,26.96
2022-08-27T16:49:26.588Z,26.83
2022-08-27T16:51:54.818Z,26.68
2022-08-27T16:54:23.067Z,26.57
2022-08-27T16:56:51.202Z,26.45
2022-08-27T16:59:20.011Z,26.42
2022-08-27T17:01:51.701Z,26.44
2022-08-27T17:04:29.655Z,26.43
2022-08-27T17:07:00.530Z,26.33
2022-08-27T17:09:28.975Z,26.18
2022-08-27T17:11:58.554Z,26.03
2022-08-27T17:14:26.995Z,25.95
2022-08-27T17:16:55.111Z,25.88
2022-08-27T17:19:26.293Z,25.80
2022-08-27T17:21:55.106Z,25.69
2022-08-27T17:24:23.570Z,25.63
2022-08-27T17:26:51.858Z,25.61
2022-08-27T17:29:20.042Z,25.57
2022-08-27T17:31:48.148Z,25.53
2022-08-27T17:34:20.311Z,25.53
2022-08-27T17:36:48.877Z,25.53
2022-08-27T17:39:17.700Z,25.53
2022-08-27T17:41:49.218Z,25.50
2022-08-27T17:44:24.621Z,25.45
2022-08-27T17:46:55.007Z,25.36
2022-08-27T17:49:26.783Z,25.25
2022-08-27T17:52:04.209Z,25.17
2022-08-27T17:54:44.771Z,25.12
2022-08-27T17:57:42.892Z,25.09
2022-08-27T18:00:13.260Z,24.99
2022-08-27T18:02:45.685Z,24.88
2022-08-27T18:05:15.883Z,24.75
2022-08-27T18:07:45.131Z,24.64
2022-08-27T18:10:18.027Z,24.55
2022-08-27T18:12:46.864Z,24.49
2022-08-27T18:15:24.671Z,24.42
2022-08-27T18:17:54.157Z,24.37
2022-08-27T18:20:25.226Z,24.22
2022-08-27T18:22:54.225Z,24.40
2022-08-27T18:25:26.769Z,24.38
2022-08-27T18:27:58.439Z,24.30
2022-08-27T18:30:26.942Z,24.19
2022-08-27T18:32:55.421Z,24.15
2022-08-27T18:35:30.326Z,24.17
2022-08-27T18:37:58.886Z,24.16
2022-08-27T18:40:31.939Z,24.18
2022-08-27T18:43:00.427Z,24.20
2022-08-27T18:45:29.378Z,24.14
2022-08-27T18:48:00.144Z,24.06
2022-08-27T18:50:28.931Z,24.01
2022-08-27T18:52:57.384Z,23.90
2022-08-27T18:55:28.256Z,23.78
2022-08-27T18:57:56.477Z,23.71
2022-08-27T19:00:25.318Z,23.63
2022-08-27T19:02:53.882Z,23.56
2022-08-27T19:05:26.767Z,23.53
2022-08-27T19:07:58.444Z,23.51
2022-08-27T19:10:26.639Z,23.45
2022-08-27T19:12:55.108Z,23.42
2022-08-27T19:15:23.346Z,23.42
2022-08-27T19:17:54.060Z,23.38
2022-08-27T19:20:22.638Z,23.35
2022-08-27T19:22:50.786Z,23.32
2022-08-27T19:25:19.005Z,23.26
2022-08-27T19:27:47.868Z,23.23
2022-08-27T19:30:17.151Z,23.17
2022-08-27T19:32:45.297Z,23.09
2022-08-27T19:35:15.156Z,23.00
2022-08-27T19:37:52.597Z,22.99
2022-08-27T19:40:22.797Z,22.93
2022-08-27T19:42:51.239Z,22.85
2022-08-27T19:45:23.285Z,22.76
2022-08-27T19:47:53.954Z,22.74
2022-08-27T19:50:23.270Z,22.72
2022-08-27T19:52:52.305Z,22.67
2022-08-27T19:55:21.273Z,22.62
2022-08-27T19:57:49.975Z,22.55
2022-08-27T20:00:20.801Z,22.51
2022-08-27T20:02:50.916Z,22.48
2022-08-27T20:05:20.938Z,22.48
2022-08-27T20:07:51.741Z,22.49
2022-08-27T20:10:25.823Z,22.50
2022-08-27T20:13:00.500Z,22.49
2022-08-27T20:15:28.595Z,22.44
2022-08-27T20:17:59.460Z,22.36
2022-08-27T20:20:29.043Z,22.30
2022-08-27T20:22:59.408Z,22.28
2022-08-27T20:25:27.479Z,22.30
2022-08-27T20:27:56.022Z,22.34
2022-08-27T20:30:26.608Z,22.28
2022-08-27T20:32:55.763Z,22.18
2022-08-27T20:35:24.366Z,22.11
2022-08-27T20:37:52.532Z,22.12
2022-08-27T20:40:24.960Z,22.17
2022-08-27T20:42:53.487Z,22.20
2022-08-27T20:45:21.767Z,22.19
2022-08-27T20:47:52.551Z,22.19
2022-08-27T20:50:21.774Z,22.19
2022-08-27T20:52:51.596Z,22.20
2022-08-27T20:55:20.635Z,22.22
2022-08-27T20:58:07.247Z,22.23
2022-08-27T21:00:40.734Z,22.27
2022-08-27T21:03:11.559Z,22.30
2022-08-27T21:05:41.908Z,22.29
2022-08-27T21:08:10.018Z,22.25
2022-08-27T21:10:45.472Z,22.20
2022-08-27T21:13:15.257Z,22.18
2022-08-27T21:15:44.246Z,22.14
2022-08-27T21:18:13.213Z,22.08
2022-08-27T21:20:41.730Z,21.98
2022-08-27T21:23:09.881Z,21.86
2022-08-27T21:25:38.139Z,21.75
2022-08-27T21:28:07.667Z,21.70
2022-08-27T21:30:37.461Z,21.66
2022-08-27T21:33:05.680Z,21.71
2022-08-27T21:35:33.846Z,21.70
2022-08-27T21:38:02.416Z,21.63
2022-08-27T21:40:30.618Z,21.58
2022-08-27T21:42:58.982Z,21.58
2022-08-27T21:45:27.167Z,21.58
2022-08-27T21:47:55.678Z,21.55
2022-08-27T21:50:24.784Z,21.48
2022-08-27T21:52:53.723Z,21.40
2022-08-27T21:55:21.920Z,21.34
2022-08-27T21:57:50.136Z,21.32
2022-08-27T22:00:29.996Z,21.32
2022-08-27T22:02:58.524Z,21.32
2022-08-27T22:05:26.790Z,21.27
2022-08-27T22:07:54.885Z,21.21
2022-08-27T22:10:23.122Z,21.10
2022-08-27T22:12:51.391Z,21.00
2022-08-27T22:15:23.877Z,20.95
2022-08-27T22:17:51.993Z,20.97
2022-08-27T22:20:21.013Z,20.94
2022-08-27T22:22:49.370Z,20.89
2022-08-27T22:25:17.527Z,20.83
2022-08-27T22:27:45.856Z,20.79
2022-08-27T22:30:14.341Z,20.76
2022-08-27T22:32:43.033Z,20.76
2022-08-27T22:35:14.536Z,20.79
2022-08-27T22:37:43.274Z,20.83
2022-08-27T22:40:19.982Z,20.86
2022-08-27T22:42:49.889Z,20.85
2022-08-27T22:45:19.757Z,20.87
2022-08-27T22:47:48.484Z,20.89
2022-08-27T22:50:17.389Z,20.91
2022-08-27T22:52:46.517Z,20.94
2022-08-27T22:55:19.440Z,20.93
2022-08-27T22:57:49.211Z,20.91
2022-08-27T23:00:23.338Z,20.90
2022-08-27T23:02:51.733Z,20.88
2022-08-27T23:05:20.474Z,20.87
2022-08-27T23:07:48.811Z,20.81
2022-08-27T23:10:19.367Z,20.75
2022-08-27T23:12:48.133Z,20.70
2022-08-27T23:15:19.553Z,20.65
2022-08-27T23:17:47.678Z,20.62
2022-08-27T23:20:16.106Z,20.58
2022-08-27T23:22:45.733Z,20.58
2022-08-27T23:25:32.969Z,20.60
2022-08-27T23:28:03.671Z,20.60
2022-08-27T23:30:36.001Z,20.59
2022-08-27T23:33:04.417Z,20.58
2022-08-27T23:35:32.564Z,20.54
2022-08-27T23:38:00.744Z,20.50
2022-08-27T23:40:29.073Z,20.47
2022-08-27T23:42:57.302Z,20.43
2022-08-27T23:45:26.497Z,20.36
2022-08-27T23:47:54.686Z,20.27
2022-08-27T23:50:31.563Z,20.20
2022-08-27T23:53:05.214Z,20.14
2022-08-27T23:55:33.963Z,20.07
2022-08-27T23:58:02.743Z,19.99
